Tiempo atmosférico en la estación meteorológica de La Pobla de Massaluca, Tarragona (365 m.)



Fecha
DESCASC
Temp. máxima en grados centígrados (hora)
DESCASC
Temp. mínima en grados centígrados (hora)
DESCASC
Temp. media en grados centígrados
DESCASC
Racha de viento máxima en m/sg (hora)
DESCASC
Velocidad máxima media en intervalos de 10 minutos(hora)
DESCASC
Precipitaciones diarias en mm
DESCASC
Precipitaciones de 00:00 a 06:00 en mm
DESCASC
Precipitaciones de 06:00 a 12:00 en mm
DESCASC
Precipitaciones de 12:00 a 18:00 en mm
DESCASC
Precipitaciones de 18:00 a 24:00 en mm
DESCASC
22-01-2020 6 (00:00) 4.1 (07:50) 5 6.11 (17:20) 3.89 (17:20) 24.6 0 0 5.4 19.2
21-01-2020 10.7 (19:00) 1.7 (00:00) 6.2 25.28 (16:30) 13.06 (16:30) 85 23.2 32.8 10.2 18.8
20-01-2020 2 (00:00) -0.5 (08:40) 0.8 7.22 (03:00) 4.44 (03:10) 12 0 4.4 2 5.6
19-01-2020 8.4 (00:50) 2 (00:00) 5.2 10.56 (02:30) 6.67 (02:40) 16.8 4 12.8 0 0
18-01-2020 12.8 (16:00) 3.6 (00:00) 8.2 7.22 (01:50) 5 (01:40) 0.2 0 0 0 0.2
17-01-2020 14.4 (15:40) 4.8 (00:00) 9.6 15.28 (16:00) 10.28 (15:30) 0 0 0 0 0
16-01-2020 13.2 (16:30) 0.7 (00:00) 6.9 5.83 (19:00) 3.33 (23:20) 0 0 0 0 0
15-01-2020 10.1 (16:30) -3.5 (-00:0) 3.3 3.06 (04:50) 2.5 (18:40) 0 0 0 0 0
14-01-2020 6.2 (16:30) -4.2 (-00:0) 1 2.78 (14:10) 1.94 (14:30) 0 0 0 0 0
13-01-2020 0.4 (15:30) -4.6 (-00:0) -2.1 3.33 (13:10) 1.94 (13:50) 0 0 0 0 0
12-01-2020 8.5 (14:50) -1.9 (22:10) 3.3 4.44 (13:50) 2.5 (13:00) 0 0 0 0 0
11-01-2020 10.3 (16:20) 3.5 (00:00) 6.9 11.11 (12:10) 6.67 (13:30) 0 0 0 0 0
10-01-2020 10.6 (17:10) 1.8 (00:00) 6.2 8.33 (09:30) 5.83 (09:30) 0.2 0.2 0 0 0
09-01-2020 4.5 (16:30) 1.8 (00:00) 3.1 5 (23:40) 3.61 (23:40) 0 0 0 0 0
08-01-2020 3.5 (14:00) 1.6 (00:00) 2.6 3.06 (01:40) 2.22 (01:30) 0 0 0 0 0
07-01-2020 2.7 (16:30) 0.7 (00:00) 1.7 5.28 (07:20) 3.33 (04:50) 0 0 0 0 0
06-01-2020 2.8 (12:40) 0.9 (00:00) 1.8 5.28 (22:20) 3.33 (23:59) 0 0 0 0 0
05-01-2020 10.1 (15:40) 1.7 (00:00) 5.9 5.83 (00:50) 3.61 (04:20) 0 0 0 0 0
04-01-2020 9.1 (16:40) 1.5 (00:00) 5.3 5.28 (13:50) 3.33 (14:00) 0 0 0 0 0
03-01-2020 2 (23:59) -1.4 (-00:0) 0.3 4.44 (05:10) 2.78 (05:30) 0 0 0 0 0
02-01-2020 0.8 (16:00) -1 (-00:0) -0.1 4.17 (04:20) 2.22 (20:40) 0 0 0 0 0
01-01-2020 1.3 (00:00) 0.1 (00:00) 0.7 5.83 (03:00) 3.89 (11:10) 0 0 0 0 0
31-12-2019 2 (02:40) 0.4 (00:00) 1.2 5.28 (20:30) 3.06 (20:30) 0 0 0 0 0
30-12-2019 2 (14:30) 0.8 (00:00) 1.4 3.61 (23:00) 2.22 (11:50) 0 0 0 0 0
29-12-2019 3.2 (12:10) 1 (00:00) 2.1 3.33 (14:30) 2.22 (14:20) 0 0 0 0 0
28-12-2019 7.1 (15:40) -0.2 (00:00) 3.4 3.33 (17:00) 2.22 (17:00) 0 0 0 0 0
27-12-2019 10.2 (15:10) -0.2 (00:00) 5 5 (15:20) 3.33 (04:00) 0 0 0 0 0

Gráficas

Temp. máximas Temp. mínimas Temp. medias Precipitaciones Rachas de viento máximas Velocidades máximas media en intervalos de 10 minutos

Datos horarios

Fecha y hora oficial Temperatura (ºC) Velocidad del viento (km/h) Dirección del viento Racha (km/h) Dirección de racha Precipitación (mm) Presión (hPa) Tendencia (hPa) Humedad (%)
2020-01-25 23:00:00 8.8 5 Este 13 Este 0 -- -- 95
2020-01-25 22:00:00 8.9 9 Este 18 Este 0 -- -- 96
2020-01-25 21:00:00 8.8 11 Este 18 Este 0 -- -- 96
2020-01-25 20:00:00 9.2 12 Este 15 Este 0 -- -- 94
2020-01-25 19:00:00 9.7 5 Sudeste 16 Este 0 -- -- 93
2020-01-25 18:00:00 10.3 10 Este 21 Este 0 -- -- 91
2020-01-25 17:00:00 11.9 10 Este 22 Este 0 -- -- 84
2020-01-25 16:00:00 11.7 8 Este 21 Este 0 -- -- 83
2020-01-25 15:00:00 11.9 12 Este 26 Este 0 -- -- 84
2020-01-25 14:00:00 11.5 9 Este 20 Este 0 -- -- 87
2020-01-25 13:00:00 11 9 Este 23 Sudeste 0 -- -- 86
2020-01-25 12:00:00 10.7 10 Este 23 Este 0 -- -- 89
2020-01-25 11:00:00 9.3 6 Este 19 Este 0 -- -- 95
2020-01-25 10:00:00 7.9 6 Este 15 Este 0 -- -- 99
2020-01-25 09:00:00 7.1 9 Este 15 Sudeste 0 -- -- 100
2020-01-25 08:00:00 6.6 5 Este 15 Este 0 -- -- 100
2020-01-25 07:00:00 5.8 10 Este 14 Este 0 -- -- 100
2020-01-25 06:00:00 5.8 4 Nordeste 5 Nordeste 0 -- -- 100
2020-01-25 05:00:00 6 2 Oeste 8 Nordeste 0 -- -- 100
2020-01-25 04:00:00 5.9 0 Calma 5 Nordeste 0 -- -- 99
2020-01-25 03:00:00 5.9 0 Calma 9 Nordeste 0 -- -- 98
2020-01-25 02:00:00 6.5 8 Nordeste 12 Nordeste 0 -- -- 97
2020-01-25 01:00:00 6.7 7 Este 9 Este 0 -- -- 97
2020-01-25 00:00:00 6.7 4 Este 7 Este 0 -- -- 94
2020-01-24 23:00:00 6.8 3 Nordeste 4 Este 0 -- -- 94
2020-01-24 22:00:00 7.2 4 Oeste 5 Oeste 0 -- -- 91
2020-01-24 21:00:00 7.6 3 Sudoeste 8 Sudeste 0 -- -- 87
2020-01-24 20:00:00 7.6 8 Sur 12 Sudeste 0 -- -- 91
2020-01-24 19:00:00 7.5 3 Este 9 Sudoeste 0 -- -- 93
2020-01-24 18:00:00 8.2 4 Sudoeste 8 Oeste 0 -- -- 92
2020-01-24 17:00:00 9.7 6 Oeste 10 Oeste 0 -- -- 86
2020-01-24 16:00:00 10.3 5 Oeste 10 Noroeste 0 -- -- 80
2020-01-24 15:00:00 9.8 6 Oeste 9 Oeste 0 -- -- 85
2020-01-24 14:00:00 8.4 6 Oeste 10 Oeste 0 -- -- 90
2020-01-24 13:00:00 6.2 5 Oeste 9 Oeste 0 -- -- 100
2020-01-24 12:00:00 5.4 0 Calma 10 Oeste 0 -- -- 100
2020-01-24 11:00:00 4.8 5 Oeste 10 Oeste 0 -- -- 100
2020-01-24 10:00:00 4.2 5 Sudoeste 8 Sudoeste 0 -- -- 100
2020-01-24 09:00:00 3.7 3 Oeste 4 Oeste 0 -- -- 100
2020-01-24 08:00:00 4.1 0 Calma 7 Noroeste 0 -- -- 100
2020-01-24 07:00:00 4.9 0 Calma 6 Sudoeste 0 -- -- 100
2020-01-24 06:00:00 4.7 2 Sudoeste 9 Sudoeste 0 -- -- 99
2020-01-24 05:00:00 5.1 5 Este 9 Este 0 -- -- 98
2020-01-24 04:00:00 5.8 3 Nordeste 6 Este 0 -- -- 98
2020-01-24 03:00:00 5.6 3 Este 8 Este 0 -- -- 98
2020-01-24 02:00:00 5.7 3 Nordeste 8 Este 0 -- -- 99
2020-01-24 01:00:00 5.7 5 Este 9 Nordeste 0 -- -- 100
2020-01-24 00:00:00 6 4 Nordeste 5 Nordeste 0 -- -- 97
2020-01-23 23:00:00 6.3 4 Oeste 11 Este 0 -- -- 96
2020-01-23 22:00:00 6.8 7 Este 13 Este 0 -- -- 95
2020-01-23 21:00:00 7.2 7 Nordeste 14 Este 0 -- -- 95
2020-01-23 20:00:00 7.6 9 Este 16 Este 0 -- -- 94
2020-01-23 19:00:00 7.6 13 Este 16 Este 0 -- -- 94
2020-01-23 18:00:00 8.6 5 Nordeste 11 Este 0 -- -- 88
2020-01-23 17:00:00 10 4 Nordeste 15 Nordeste 0 -- -- 84
2020-01-23 16:00:00 10.3 5 Nordeste 13 Nordeste 0 -- -- 85
2020-01-23 15:00:00 9.5 7 Nordeste 15 Nordeste 0 -- -- 86
2020-01-23 14:00:00 9 12 Nordeste 20 Nordeste 0 -- -- 89
2020-01-23 13:00:00 8.5 5 Nordeste 12 Nordeste 0 -- -- 95
2020-01-23 12:00:00 7.4 2 Norte 6 Sur 0 -- -- 100
2020-01-23 11:00:00 5.7 0 Calma 5 Sudeste 0 -- -- 100
2020-01-23 10:00:00 4.8 2 Sur 6 Sur 0.8 -- -- 100
2020-01-23 09:00:00 4.6 3 Este 6 Oeste 1.6 -- -- 100
2020-01-23 08:00:00 4.7 5 Oeste 14 Sudoeste 0 -- -- 100
2020-01-23 07:00:00 4.7 10 Sudoeste 19 Sudoeste 0.2 -- -- 100
2020-01-23 06:00:00 4.6 13 Sudoeste 21 Sudoeste 0.2 -- -- 100
2020-01-23 05:00:00 4.7 7 Oeste 13 Sudoeste 2.4 -- -- 100
2020-01-23 04:00:00 4.8 4 Oeste 12 Oeste 3 -- -- 100
2020-01-23 03:00:00 4.9 8 Oeste 14 Sudoeste 3.8 -- -- 100
2020-01-23 02:00:00 4.9 7 Sudoeste 10 Sudoeste 4.8 -- -- 100
2020-01-23 01:00:00 4.9 3 Sudoeste 12 Sudoeste 1 -- -- 100
2020-01-23 00:00:00 5 6 Oeste 10 Sudoeste 1.8 -- -- 100
2020-01-22 23:00:00 5 0 Calma 15 Sudoeste 2.4 -- -- 100
2020-01-22 22:00:00 5 12 Sudoeste 19 Sudoeste 4 -- -- 100
2020-01-22 21:00:00 5 5 Sudoeste 13 Sur 2.6 -- -- 100
2020-01-22 20:00:00 5.1 4 Oeste 16 Sudoeste 5 -- -- 100
2020-01-22 19:00:00 5.2 10 Sudoeste 16 Sudoeste 3.4 -- -- 100
2020-01-22 18:00:00 5.2 3 Noroeste 22 Sudoeste 2 -- -- 100
2020-01-22 17:00:00 5.3 13 Sudoeste 20 Sudoeste 3.2 -- -- 100
2020-01-22 16:00:00 5.5 7 Oeste 16 Sudoeste 0 -- -- 100
2020-01-22 15:00:00 5.4 6 Oeste 20 Oeste 0 -- -- 100
2020-01-22 14:00:00 5.6 9 Oeste 17 Oeste 0.2 -- -- 100
2020-01-22 13:00:00 5.3 8 Sudoeste 14 Sudoeste 0 -- -- 100
2020-01-22 12:00:00 4.9 9 Oeste 16 Sudoeste 0 -- -- 100
2020-01-22 11:00:00 4.7 6 Oeste 14 Sudoeste 0 -- -- 100
2020-01-22 10:00:00 4.4 6 Oeste 13 Oeste 0 -- -- 100
2020-01-22 09:00:00 4.1 5 Oeste 12 Oeste 0 -- -- 100
2020-01-22 08:00:00 4.1 5 Sudoeste 16 Sudoeste 0 -- -- 100
2020-01-22 07:00:00 4.2 8 Sudoeste 18 Sudoeste 0 -- -- 100
2020-01-22 06:00:00 4.3 10 Sudoeste 17 Sur 0 -- -- 100
2020-01-22 05:00:00 4.7 9 Oeste 18 Sudoeste 0 -- -- 100
2020-01-22 04:00:00 5.2 6 Oeste 13 Oeste 0 -- -- 100
2020-01-22 03:00:00 5.6 9 Sudoeste 14 Oeste 0 -- -- 100
2020-01-22 02:00:00 5.5 7 Sudoeste 9 Oeste 0 -- -- 100
2020-01-22 01:00:00 5.6 3 Oeste 8 Noroeste 0 -- -- 100
2020-01-22 00:00:00 6 3 Nordeste 9 Nordeste 0 -- -- 100
2020-01-21 23:00:00 6.1 7 Nordeste 17 Nordeste 2.8 -- -- 100
2020-01-21 22:00:00 6.3 6 Nordeste 22 Este 5.8 -- -- 99
2020-01-21 21:00:00 6.2 13 Sudeste 30 Este 9.6 -- -- 97
2020-01-21 20:00:00 10.1 22 Este 74 Este 0.4 -- -- 89
2020-01-21 19:00:00 10.7 45 Nordeste 77 Nordeste 0.2 -- -- 84
2020-01-21 18:00:00 10.2 36 Nordeste 64 Este 1.2 -- -- 90
2020-01-21 17:00:00 9.7 32 Nordeste 91 Este 1.4 -- -- 94
2020-01-21 16:00:00 10.5 46 Nordeste 89 Este 1.4 -- -- 92
2020-01-21 15:00:00 10 39 Nordeste 82 Este 1.8 -- -- 97
2020-01-21 14:00:00 8.2 19 Nordeste 50 Norte 2 -- -- 100
2020-01-21 13:00:00 3.6 4 Nordeste 15 Nordeste 2.4 -- -- 100
2020-01-21 12:00:00 3.2 8 Oeste 33 Oeste 7 -- -- 100
2020-01-21 11:00:00 2.2 14 Sudoeste 25 Sur 5.4 -- -- 100
2020-01-21 10:00:00 2.7 10 Sudoeste 19 Sur 3.8 -- -- 100
2020-01-21 09:00:00 3.4 2 Oeste 15 Nordeste 5.2 -- -- 100
2020-01-21 08:00:00 3.2 3 Nordeste 13 Sudoeste 5 -- -- 100
2020-01-21 07:00:00 2.8 4 Oeste 16 Norte 6.4 -- -- 100
2020-01-21 06:00:00 3 3 Oeste 33 Nordeste 6.8 -- -- 99
2020-01-21 05:00:00 4.2 12 Nordeste 23 Norte 7 -- -- 100
2020-01-21 04:00:00 3.8 7 Nordeste 21 Norte 3 -- -- 100
2020-01-21 03:00:00 1.8 5 Sudoeste 15 Sudoeste 1.4 -- -- 100
2020-01-21 02:00:00 2.3 11 Sudoeste 15 Sudoeste 2.6 -- -- 100
2020-01-21 01:00:00 2 12 Sudoeste 16 Sudoeste 2.4 -- -- 100
2020-01-21 00:00:00 1.7 4 Oeste 9 Oeste 1.8 -- -- 100
2020-01-20 23:00:00 1.5 4 Oeste 13 Noroeste 2 -- -- 100
2020-01-20 22:00:00 1.4 4 Oeste 16 Sudoeste 0.8 -- -- 100
2020-01-20 21:00:00 0.9 10 Sudoeste 17 Sudoeste 1 -- -- 100
2020-01-20 20:00:00 0.8 12 Sudoeste 20 Sudoeste 0 -- -- 100
2020-01-20 19:00:00 0.5 11 Sudoeste 19 Sudoeste 0 -- -- 100
2020-01-20 18:00:00 0.3 12 Sudoeste 17 Sudoeste 0.2 -- -- 100
2020-01-20 17:00:00 0.3 8 Sudoeste 17 Sudoeste 0.2 -- -- 100
2020-01-20 16:00:00 0.2 7 Sudoeste 16 Sudoeste 0.2 -- -- 100
2020-01-20 15:00:00 0.1 12 Sudoeste 19 Sudoeste 0.4 -- -- 100
2020-01-20 14:00:00 0 0 Calma -- -- 0 -- -- 100
2020-01-20 13:00:00 -0.2 0 Calma 14 Oeste 1 -- -- 100
2020-01-20 12:00:00 -0.2 11 Oeste 16 Oeste 1.6 -- -- 100
2020-01-20 11:00:00 -0.4 11 Oeste 17 Oeste 0.6 -- -- 100
2020-01-20 10:00:00 -0.4 9 Oeste 15 Oeste 0.6 -- -- 100
2020-01-20 09:00:00 -0.5 11 Oeste 17 Sudoeste 1 -- -- 100
2020-01-20 08:00:00 -0.3 10 Oeste 19 Sudoeste 0.6 -- -- 99
2020-01-20 07:00:00 -0.2 12 Sudoeste 24 Sudoeste 0 -- -- 96
2020-01-20 06:00:00 1 12 Sudoeste 25 Sudoeste 0 -- -- 83
2020-01-20 05:00:00 1 13 Sudoeste 22 Oeste 0 -- -- 81
2020-01-20 04:00:00 0.8 12 Sudoeste 25 Sudoeste 0 -- -- 83
2020-01-20 03:00:00 1 14 Oeste 26 Oeste 0 -- -- 83
2020-01-20 02:00:00 1.3 12 Oeste 19 Sudoeste 0 -- -- 83
2020-01-20 01:00:00 1.7 10 Sudoeste 20 Sudoeste 0 -- -- 83
2020-01-20 00:00:00 2 8 Sudoeste 17 Sudoeste 0 -- -- 82
2020-01-19 23:00:00 2.5 7 Sudoeste 15 Sudoeste 0 -- -- 82
2020-01-19 22:00:00 3.2 12 Sudoeste 18 Sudoeste 0 -- -- 82
2020-01-19 21:00:00 4.2 11 Sudoeste 18 Sudoeste 0 -- -- 87
2020-01-19 20:00:00 4.9 10 Sudoeste 17 Sudoeste 0 -- -- 89
2020-01-19 19:00:00 5.3 9 Sur 16 Sudoeste 0 -- -- 91
2020-01-19 18:00:00 5.8 8 Sudoeste 18 Oeste 0 -- -- 91
2020-01-19 17:00:00 6.1 11 Sudoeste 21 Sudoeste 0 -- -- 94
2020-01-19 16:00:00 6.2 12 Sudoeste 19 Oeste 0 -- -- 100
2020-01-19 15:00:00 6.5 8 Sudoeste 14 Sudoeste 0 -- -- 100
2020-01-19 14:00:00 5.9 6 Oeste 15 Oeste 0 -- -- 100
2020-01-19 13:00:00 5.5 13 Oeste 17 Oeste 0 -- -- 100
2020-01-19 12:00:00 5.2 10 Oeste 18 Sudoeste 0.2 -- -- 100
2020-01-19 11:00:00 4.8 11 Sudoeste 19 Sudoeste 1.2 -- -- 100
2020-01-19 10:00:00 4.7 3 Sudoeste 10 Sudoeste 1.8 -- -- 100
2020-01-19 09:00:00 4.6 6 Sudoeste 21 Sudoeste 4 -- -- 100
2020-01-19 08:00:00 4.6 9 Sudoeste 16 Sudoeste 3 -- -- 100
2020-01-19 07:00:00 4.6 11 Oeste 25 Oeste 2.6 -- -- 99
2020-01-19 06:00:00 4.8 15 Oeste 35 Sudoeste 0.6 -- -- 98
2020-01-19 05:00:00 5.3 12 Sudoeste 26 Oeste 0.8 -- -- 94
2020-01-19 04:00:00 5.4 18 Sudoeste 33 Sudoeste 1.8 -- -- 94
2020-01-19 03:00:00 5.8 23 Sudoeste 38 Sudoeste 0.8 -- -- 94
2020-01-19 02:00:00 7.2 17 Sudoeste 27 Sudoeste 0 -- -- 93
2020-01-19 01:00:00 7.8 19 Sudoeste 37 Sudoeste 0 -- -- 94
2020-01-19 00:00:00 8.1 11 Este 19 Este 0 -- -- 96
2020-01-18 23:00:00 8.2 10 Este 18 Este 0 -- -- 94
2020-01-18 22:00:00 8 7 Este 18 Este 0.2 -- -- 95
2020-01-18 21:00:00 8.7 9 Nordeste 19 Este 0 -- -- 92
2020-01-18 20:00:00 9.2 11 Este 19 Este 0 -- -- 87
2020-01-18 19:00:00 9.5 12 Este 22 Nordeste 0 -- -- 83
2020-01-18 18:00:00 10 12 Este 20 Este 0 -- -- 77
2020-01-18 17:00:00 11.3 8 Este 21 Este 0 -- -- 68
2020-01-18 16:00:00 12.8 8 Este 19 Este 0 -- -- 61
2020-01-18 15:00:00 11.5 7 Este 14 Este 0 -- -- 63
2020-01-18 14:00:00 11.2 4 Nordeste 10 Este 0 -- -- 62
2020-01-18 13:00:00 10.5 4 Norte 13 Norte 0 -- -- 65
2020-01-18 12:00:00 8.6 5 Nordeste 7 Nordeste 0 -- -- 69
2020-01-18 11:00:00 6.8 4 Este 6 Nordeste 0 -- -- 77
2020-01-18 10:00:00 4.1 6 Este 10 Este 0 -- -- 83
2020-01-18 09:00:00 3.8 6 Nordeste 8 Nordeste 0 -- -- 83
2020-01-18 08:00:00 3.9 3 Este 8 Oeste 0 -- -- 83
2020-01-18 07:00:00 4.8 6 Oeste 17 Oeste 0 -- -- 78
2020-01-18 06:00:00 5.8 10 Sudoeste 19 Sudoeste 0 -- -- 73
2020-01-18 05:00:00 5.7 10 Sudoeste 17 Sudoeste 0 -- -- 74
2020-01-18 04:00:00 5.2 12 Sudoeste 21 Sudoeste 0 -- -- 76
2020-01-18 03:00:00 4.7 11 Sudoeste 24 Sudoeste 0 -- -- 80
2020-01-18 02:00:00 5 13 Oeste 26 Oeste 0 -- -- 79
2020-01-18 01:00:00 4.8 12 Oeste 22 Oeste 0 -- -- 82
2020-01-18 00:00:00 5.1 15 Oeste 23 Oeste 0 -- -- 82
2020-01-17 23:00:00 5.6 15 Oeste 27 Sudoeste 0 -- -- 81
2020-01-17 22:00:00 6.2 15 Oeste 22 Oeste 0 -- -- 78
2020-01-17 21:00:00 7.5 10 Oeste 26 Oeste 0 -- -- 72
2020-01-17 20:00:00 8.1 14 Oeste 28 Oeste 0 -- -- 69
2020-01-17 19:00:00 9.5 17 Oeste 24 Noroeste 0 -- -- 65
2020-01-17 18:00:00 11.1 15 Noroeste 33 Oeste 0 -- -- 59
2020-01-17 17:00:00 13.6 26 Oeste 51 Oeste 0 -- -- 55
2020-01-17 16:00:00 14.1 37 Oeste 55 Oeste 0 -- -- 48
2020-01-17 15:00:00 13.8 32 Oeste 50 Oeste 0 -- -- 53
2020-01-17 14:00:00 13.8 33 Oeste 50 Oeste 0 -- -- 56
2020-01-17 13:00:00 12.9 19 Oeste 31 Oeste 0 -- -- 61
2020-01-17 12:00:00 11.4 15 Oeste 26 Oeste 0 -- -- 65
2020-01-17 11:00:00 8.8 14 Oeste 25 Oeste 0 -- -- 75
2020-01-17 10:00:00 7.2 10 Sudoeste 18 Sudoeste 0 -- -- 78
2020-01-17 09:00:00 7.4 8 Sudoeste 14 Sudoeste 0 -- -- 78
2020-01-17 08:00:00 5.7 8 Sudoeste 13 Sudoeste 0 -- -- 92
2020-01-17 07:00:00 5.6 5 Sudoeste 10 Sudoeste 0 -- -- 100
2020-01-17 06:00:00 5.3 2 Noroeste 11 Nordeste 0 -- -- 100
2020-01-17 05:00:00 5.5 0 Calma 8 Nordeste 0 -- -- 100
2020-01-17 04:00:00 5.6 6 Este 13 Sudeste 0 -- -- 96
2020-01-17 03:00:00 6.4 5 Sudeste 14 Este 0 -- -- 97
2020-01-17 02:00:00 7 2 Oeste 13 Sudeste 0 -- -- 93
2020-01-17 01:00:00 7.3 3 Sudeste 10 Este 0 -- -- 94
2020-01-17 00:00:00 8.4 3 Este 16 Sudeste 0 -- -- 86
2020-01-16 23:00:00 8.4 8 Sudeste 13 Sudeste 0 -- -- 90
2020-01-16 22:00:00 9.1 0 Calma 14 Este 0 -- -- 84
2020-01-16 21:00:00 9.4 9 Este 19 Sur 0 -- -- 82
2020-01-16 20:00:00 10.1 10 Este 19 Este 0 -- -- 79
2020-01-16 19:00:00 10.6 12 Sudeste 21 Sudeste 0 -- -- 77
2020-01-16 18:00:00 11.4 8 Este 16 Este 0 -- -- 72
2020-01-16 17:00:00 13 8 Este 11 Este 0 -- -- 65
2020-01-16 16:00:00 13.1 7 Nordeste 14 Nordeste 0 -- -- 63
2020-01-16 15:00:00 12.5 4 Nordeste 11 Nordeste 0 -- -- 65
2020-01-16 14:00:00 10.7 4 Nordeste 8 Oeste 0 -- -- 70
2020-01-16 13:00:00 9 6 Noroeste 8 Noroeste 0 -- -- 74
2020-01-16 12:00:00 7.3 2 Sudoeste 7 Oeste 0 -- -- 82
2020-01-16 11:00:00 5.2 2 Oeste 6 Oeste 0 -- -- 89
2020-01-16 10:00:00 2.2 4 Sudoeste 8 Sudoeste 0 -- -- 95
2020-01-16 09:00:00 1.5 6 Este 8 Este 0 -- -- 96
2020-01-16 08:00:00 4.2 3 Nordeste 6 Sudeste 0 -- -- 89
2020-01-16 07:00:00 4.1 4 Sudeste 7 Nordeste 0 -- -- 93
2020-01-16 06:00:00 3.7 0 Calma 6 Este 0 -- -- 88
2020-01-16 05:00:00 4.5 3 Nordeste 4 Nordeste 0 -- -- 85
2020-01-16 04:00:00 5.6 0 Calma 6 Sur 0 -- -- 83
2020-01-16 03:00:00 4.6 2 Sudoeste 6 Sudeste 0 -- -- 88
2020-01-16 02:00:00 4.3 0 Calma 5 Oeste 0 -- -- 88
2020-01-16 01:00:00 4.1 2 Oeste 5 Nordeste 0 -- -- 88
2020-01-16 00:00:00 4.5 4 Oeste 9 Sudoeste 0 -- -- 86
2020-01-15 23:00:00 4.3 0 Calma 9 Oeste 0 -- -- 87
2020-01-15 22:00:00 5.1 4 Oeste 9 Noroeste 0 -- -- 83
2020-01-15 21:00:00 8 5 Sudoeste 9 Sudeste 0 -- -- 70
2020-01-15 20:00:00 7.3 4 Este 8 Este 0 -- -- 76
2020-01-15 19:00:00 6.8 6 Este 10 Nordeste 0 -- -- 79
2020-01-15 18:00:00 7.5 7 Nordeste 10 Nordeste 0 -- -- 74
2020-01-15 17:00:00 8.9 6 Nordeste 9 Nordeste 0 -- -- 71
2020-01-15 16:00:00 9.5 3 Noroeste 6 Sudoeste 0 -- -- 73
2020-01-15 15:00:00 8.6 3 Oeste 6 Sur 0 -- -- 74
2020-01-15 14:00:00 4.8 2 Oeste 5 Sudoeste 0 -- -- 87
2020-01-15 13:00:00 2.6 3 Oeste 6 Oeste 0 -- -- 99
2020-01-15 12:00:00 0.1 3 Oeste 6 Oeste 0 -- -- 99
2020-01-15 11:00:00 -0.4 2 Oeste 8 Oeste 0 -- -- 99
2020-01-15 10:00:00 -1.6 5 Nordeste 6 Nordeste 0 -- -- 98
2020-01-15 09:00:00 -1.1 4 Nordeste 6 Nordeste 0 -- -- 100
2020-01-15 08:00:00 -3.5 5 Este 8 Oeste 0 -- -- 98
2020-01-15 07:00:00 -2.7 6 Este 8 Este 0 -- -- 99
2020-01-15 06:00:00 -1.8 5 Este 8 Este 0 -- -- 100
2020-01-15 05:00:00 -1.4 3 Norte 11 Oeste 0 -- -- 100
2020-01-15 04:00:00 -0.6 2 Sudeste 8 Sudoeste 0 -- -- 100
2020-01-15 03:00:00 -0.1 5 Sudoeste 9 Sur 0 -- -- 100
2020-01-15 02:00:00 -1.7 2 Sudeste 4 Sudeste 0 -- -- 100
2020-01-15 01:00:00 -3.2 2 Oeste 6 Oeste 0 -- -- 99
2020-01-15 00:00:00 -0.2 4 Oeste 6 Oeste 0 -- -- 99
2020-01-14 23:00:00 -1.4 4 Sudoeste 9 Oeste 0 -- -- 98
2020-01-14 22:00:00 0.7 2 Oeste 6 Oeste 0 -- -- 97
2020-01-14 21:00:00 1.5 4 Oeste 6 Sudoeste 0 -- -- 96
2020-01-14 20:00:00 1.6 0 Calma 8 Oeste 0 -- -- 95
2020-01-14 19:00:00 2.5 6 Oeste 6 Oeste 0 -- -- 88
2020-01-14 18:00:00 4.2 4 Oeste 7 Oeste 0 -- -- 83
2020-01-14 17:00:00 5.6 5 Oeste 8 Oeste 0 -- -- 79
2020-01-14 16:00:00 5.7 4 Oeste 8 Noroeste 0 -- -- 90
2020-01-14 15:00:00 3.7 4 Noroeste 10 Oeste 0 -- -- 100
2020-01-14 14:00:00 2.1 5 Oeste 8 Oeste 0 -- -- 100
2020-01-14 13:00:00 1 2 Noroeste 6 Oeste 0 -- -- 100
2020-01-14 12:00:00 -1 0 Calma 4 Oeste 0 -- -- 100
2020-01-14 11:00:00 -2.2 0 Calma -- -- 0 -- -- 100
2020-01-14 10:00:00 -3.1 0 Calma -- -- 0 -- -- 100
2020-01-14 09:00:00 -3.7 0 Calma -- -- 0 -- -- 99
2020-01-14 08:00:00 -3.7 0 Calma -- -- 0 -- -- 99
2020-01-14 07:00:00 -4 0 Calma -- -- 0 -- -- 100
2020-01-14 06:00:00 -4.1 0 Calma -- -- 0 -- -- 99
2020-01-14 05:00:00 -3.2 0 Calma -- -- 0 -- -- 100
2020-01-14 04:00:00 -3.3 0 Calma -- -- 0 -- -- 100
2020-01-14 03:00:00 -3.3 0 Calma -- -- 0 -- -- 100
2020-01-14 02:00:00 -2.1 0 Calma -- -- 0 -- -- 100
2020-01-14 01:00:00 -1.6 0 Calma -- -- 0 -- -- 100
2020-01-14 00:00:00 -1.5 0 Calma 4 Oeste 0 -- -- 100
2020-01-13 23:00:00 -1.3 2 Noroeste 7 Norte 0 -- -- 100
2020-01-13 22:00:00 -2.1 4 Norte 10 Noroeste 0 -- -- 100
2020-01-13 21:00:00 -2 4 Nordeste 6 Noroeste 0 -- -- 100
2020-01-13 20:00:00 -1.4 2 Oeste 5 Oeste 0 -- -- 100
2020-01-13 19:00:00 -0.4 0 Calma 8 Este 0 -- -- 100
2020-01-13 18:00:00 -0.1 3 Noroeste 7 Oeste 0 -- -- 100
2020-01-13 17:00:00 0.3 2 Sudoeste 12 Oeste 0 -- -- 100
2020-01-13 16:00:00 0.4 4 Sudoeste 11 Noroeste 0 -- -- 100
2020-01-13 15:00:00 0.3 7 Noroeste 11 Noroeste 0 -- -- 100
2020-01-13 14:00:00 0 6 Noroeste 12 Oeste 0 -- -- 100
2020-01-13 13:00:00 -0.5 4 Noroeste 10 Oeste 0 -- -- 100
2020-01-13 12:00:00 -0.7 4 Oeste 8 Noroeste 0 -- -- 100
2020-01-13 11:00:00 -1.5 0 Calma -- -- 0 -- -- 100
2020-01-13 10:00:00 -2.7 0 Calma -- -- 0 -- -- 100
2020-01-13 09:00:00 -4 0 Calma -- -- 0 -- -- 99
2020-01-13 08:00:00 -4.4 0 Calma -- -- 0 -- -- 98
2020-01-13 07:00:00 -4.6 0 Calma -- -- 0 -- -- 99
2020-01-13 06:00:00 -3.9 0 Calma -- -- 0 -- -- 99
2020-01-13 05:00:00 -3.2 0 Calma -- -- 0 -- -- 99
2020-01-13 04:00:00 -2.8 0 Calma 4 Noroeste 0 -- -- 99
2020-01-13 03:00:00 -2.9 3 Noroeste 6 Noroeste 0 -- -- 99
2020-01-13 02:00:00 -3.3 0 Calma 6 Noroeste 0 -- -- 98
2020-01-13 01:00:00 -2.7 0 Calma 4 Nordeste 0 -- -- 97
2020-01-13 00:00:00 -1.8 2 Oeste 5 Oeste 0 -- -- 94
2020-01-12 23:00:00 -0.9 3 Sur 6 Sudeste 0 -- -- 98
2020-01-12 22:00:00 -1.6 0 Calma 4 Nordeste 0 -- -- 92
2020-01-12 21:00:00 0.9 0 Calma 4 Oeste 0 -- -- 88
2020-01-12 20:00:00 2.9 0 Calma 5 Nordeste 0 -- -- 80
2020-01-12 19:00:00 4 2 Nordeste 8 Noroeste 0 -- -- 73
2020-01-12 18:00:00 5.6 4 Norte 8 Norte 0 -- -- 68
2020-01-12 17:00:00 7.3 4 Noroeste 9 Noroeste 0 -- -- 66
2020-01-12 16:00:00 8.4 5 Noroeste 11 Noroeste 0 -- -- 60
2020-01-12 15:00:00 8.3 5 Norte 13 Noroeste 0 -- -- 62
2020-01-12 14:00:00 7.4 5 Noroeste 16 Oeste 0 -- -- 64
2020-01-12 13:00:00 6.8 9 Oeste 15 Oeste 0 -- -- 65
2020-01-12 12:00:00 5.2 4 Oeste 7 Oeste 0 -- -- 65
2020-01-12 11:00:00 3.1 3 Oeste 6 Oeste 0 -- -- 69
2020-01-12 10:00:00 0.7 4 Oeste 8 Oeste 0 -- -- 80
2020-01-12 09:00:00 0.4 4 Oeste 10 Oeste 0 -- -- 78
2020-01-12 08:00:00 0.5 7 Oeste 12 Oeste 0 -- -- 79
2020-01-12 07:00:00 0.8 8 Oeste 11 Oeste 0 -- -- 80
2020-01-12 06:00:00 1.2 7 Oeste 12 Sudoeste 0 -- -- 83
2020-01-12 05:00:00 3.3 5 Sudoeste 7 Oeste 0 -- -- 72
2020-01-12 04:00:00 3.3 5 Sudoeste 8 Sudoeste 0 -- -- 73
2020-01-12 03:00:00 2.7 5 Oeste 6 Sudoeste 0 -- -- 84
2020-01-12 02:00:00 3.3 4 Oeste 6 Oeste 0 -- -- 81
2020-01-12 01:00:00 3.1 3 Oeste 6 Noroeste 0 -- -- 84
2020-01-12 00:00:00 4.9 5 Oeste 10 Sudoeste 0 -- -- 74
2020-01-11 23:00:00 4.6 8 Sudoeste 10 Sudoeste 0 -- -- 77
2020-01-11 22:00:00 5.5 3 Sudoeste -- -- 0 -- -- 81
2020-01-11 21:00:00 6 2 Noroeste 9 Sudoeste 0 -- -- 76
2020-01-11 20:00:00 7.7 8 Oeste 10 Sudoeste 0 -- -- 67
2020-01-11 19:00:00 7.6 6 Oeste 10 Oeste 0 -- -- 67
2020-01-11 18:00:00 8.5 5 Oeste 17 Oeste 0 -- -- 65
2020-01-11 17:00:00 10.1 10 Oeste 22 Oeste 0 -- -- 60
2020-01-11 16:00:00 10.2 17 Oeste 29 Oeste 0 -- -- 59
2020-01-11 15:00:00 10 17 Oeste 31 Oeste 0 -- -- 60
2020-01-11 14:00:00 9.3 20 Oeste 35 Oeste 0 -- -- 63
2020-01-11 13:00:00 8.9 20 Oeste 40 Sudoeste 0 -- -- 64
2020-01-11 12:00:00 7.8 22 Oeste 36 Sudoeste 0 -- -- 67
2020-01-11 11:00:00 6.8 18 Oeste 31 Sudoeste 0 -- -- 72
2020-01-11 10:00:00 4.7 10 Sudoeste 23 Sudoeste 0 -- -- 81
2020-01-11 09:00:00 3.9 15 Sudoeste 24 Sudoeste 0 -- -- 82
2020-01-11 08:00:00 3.5 14 Sudoeste 23 Sudoeste 0 -- -- 85
2020-01-11 07:00:00 3.5 13 Sudoeste 22 Sudoeste 0 -- -- 85
2020-01-11 06:00:00 3.9 15 Sudoeste 26 Sudoeste 0 -- -- 85
2020-01-11 05:00:00 4.1 15 Sudoeste 24 Sudoeste 0 -- -- 87
2020-01-11 04:00:00 4.1 13 Sudoeste 22 Sudoeste 0 -- -- 88
2020-01-11 03:00:00 4.5 13 Sudoeste 23 Sudoeste 0 -- -- 88
2020-01-11 02:00:00 4.7 14 Sudoeste 22 Sudoeste 0 -- -- 88
2020-01-11 01:00:00 4.8 14 Sudoeste 25 Sudoeste 0 -- -- 88
2020-01-11 00:00:00 5 12 Sudoeste 22 Sudoeste 0 -- -- 88
2020-01-10 23:00:00 5.6 16 Sudoeste 28 Sudoeste 0 -- -- 86
2020-01-10 22:00:00 6 16 Sudoeste 25 Oeste 0 -- -- 86
2020-01-10 21:00:00 6.5 17 Sudoeste 27 Oeste 0 -- -- 86
2020-01-10 20:00:00 6.8 16 Sudoeste 24 Sudoeste 0 -- -- 85
2020-01-10 19:00:00 7.4 11 Oeste 17 Sudoeste 0 -- -- 84
2020-01-10 18:00:00 8.6 3 Este 5 Este 0 -- -- 80
2020-01-10 17:00:00 10.5 2 Oeste 9 Oeste 0 -- -- 76
2020-01-10 16:00:00 10.2 3 Noroeste 8 Oeste 0 -- -- 76
2020-01-10 15:00:00 9 0 Calma 12 Noroeste 0 -- -- 83
2020-01-10 14:00:00 8.1 8 Oeste 19 Oeste 0 -- -- 82
2020-01-10 13:00:00 7.2 9 Oeste 21 Oeste 0 -- -- 86
2020-01-10 12:00:00 7.3 15 Oeste 27 Oeste 0 -- -- 99
2020-01-10 11:00:00 6.1 15 Oeste 28 Oeste 0 -- -- 100
2020-01-10 10:00:00 5.2 18 Oeste 30 Oeste 0 -- -- 100
2020-01-10 09:00:00 4.8 17 Oeste 27 Oeste 0 -- -- 100
2020-01-10 08:00:00 5 17 Oeste 25 Oeste 0 -- -- 100
2020-01-10 07:00:00 4.5 16 Oeste 26 Oeste 0 -- -- 100
2020-01-10 06:00:00 3.2 10 Sudoeste 21 Sudoeste 0 -- -- 100
2020-01-10 05:00:00 2.6 13 Sudoeste 26 Oeste 0.2 -- -- 100
2020-01-10 04:00:00 2 15 Oeste 25 Oeste 0 -- -- 100
2020-01-10 03:00:00 2 12 Oeste 22 Sudoeste 0 -- -- 100
2020-01-10 02:00:00 2.5 5 Oeste 9 Oeste 0 -- -- 100
2020-01-10 01:00:00 2.8 4 Oeste 10 Oeste 0 -- -- 100
2020-01-10 00:00:00 2.8 9 Oeste 18 Oeste 0 -- -- 100
2020-01-09 23:00:00 3.5 5 Oeste 10 Oeste 0 -- -- 100
2020-01-09 22:00:00 3.5 10 Oeste 17 Oeste 0 -- -- 100
2020-01-09 21:00:00 3.9 5 Noroeste 15 Noroeste 0 -- -- 100
2020-01-09 20:00:00 4 4 Sur 7 Sudeste 0 -- -- 100
2020-01-09 19:00:00 4.1 4 Oeste 17 Noroeste 0 -- -- 100
2020-01-09 18:00:00 4.1 5 Noroeste 10 Noroeste 0 -- -- 100
2020-01-09 17:00:00 4.4 5 Nordeste 10 Este 0 -- -- 100
2020-01-09 16:00:00 4.4 2 Oeste 6 Noroeste 0 -- -- 100
2020-01-09 15:00:00 3.9 2 Norte 9 Noroeste 0 -- -- 100
2020-01-09 14:00:00 3.6 3 Noroeste 9 Noroeste 0 -- -- 100
2020-01-09 13:00:00 3.7 2 Norte 5 Oeste 0 -- -- 100
2020-01-09 12:00:00 2.8 2 Oeste 6 Oeste 0 -- -- 100
2020-01-09 11:00:00 2.4 2 Noroeste 6 Noroeste 0 -- -- 100
2020-01-09 10:00:00 2 3 Oeste 5 Oeste 0 -- -- 100
2020-01-09 09:00:00 1.9 0 Calma 4 Oeste 0 -- -- 100
2020-01-09 08:00:00 1.8 0 Calma 5 Noroeste 0 -- -- 100
2020-01-09 07:00:00 2 3 Oeste 6 Oeste 0 -- -- 100
2020-01-09 06:00:00 1.9 3 Oeste 5 Oeste 0 -- -- 100
2020-01-09 05:00:00 2.2 3 Oeste 6 Oeste 0 -- -- 100
2020-01-09 04:00:00 2.3 3 Oeste 6 Oeste 0 -- -- 100
2020-01-09 03:00:00 1.8 0 Calma 4 Nordeste 0 -- -- 100
2020-01-09 02:00:00 2.1 2 Noroeste 3 Oeste 0 -- -- 100
2020-01-09 01:00:00 2.2 0 Calma 3 Noroeste 0 -- -- 100
2020-01-09 00:00:00 2.4 0 Calma 3 Noroeste 0 -- -- 100
2020-01-08 23:00:00 2.6 0 Calma 4 Oeste 0 -- -- 100
2020-01-08 22:00:00 2.8 3 Noroeste 6 Noroeste 0 -- -- 100
2020-01-08 21:00:00 3 0 Calma 6 Oeste 0 -- -- 100
2020-01-08 20:00:00 3 3 Oeste 6 Sudoeste 0 -- -- 100
2020-01-08 19:00:00 3.1 4 Oeste 7 Sudoeste 0 -- -- 100
2020-01-08 18:00:00 3.3 3 Sudoeste 6 Sudoeste 0 -- -- 100
2020-01-08 17:00:00 3.4 3 Oeste 5 Oeste 0 -- -- 100
2020-01-08 16:00:00 3.3 3 Oeste 8 Noroeste 0 -- -- 100
2020-01-08 15:00:00 3.2 4 Noroeste 9 Noroeste 0 -- -- 100
2020-01-08 14:00:00 3.5 3 Oeste 9 Oeste 0 -- -- 100
2020-01-08 13:00:00 3 5 Oeste 9 Oeste 0 -- -- 100
2020-01-08 12:00:00 2.6 3 Oeste 7 Nordeste 0 -- -- 100
2020-01-08 11:00:00 2 4 Norte 7 Nordeste 0 -- -- 100
2020-01-08 10:00:00 1.9 3 Norte 7 Noroeste 0 -- -- 100
2020-01-08 09:00:00 2 3 Noroeste 6 Noroeste 0 -- -- 100
2020-01-08 08:00:00 1.9 3 Norte 7 Noroeste 0 -- -- 100
2020-01-08 07:00:00 1.8 3 Noroeste 6 Noroeste 0 -- -- 100
2020-01-08 06:00:00 1.8 2 Oeste 7 Oeste 0 -- -- 100
2020-01-08 05:00:00 1.8 4 Oeste 11 Oeste 0 -- -- 100
2020-01-08 04:00:00 1.8 5 Oeste 10 Oeste 0 -- -- 100
2020-01-08 03:00:00 1.9 6 Oeste 9 Oeste 0 -- -- 100
2020-01-08 02:00:00 1.8 4 Noroeste 11 Oeste 0 -- -- 100
2020-01-08 01:00:00 1.6 6 Oeste 10 Oeste 0 -- -- 100
2020-01-08 00:00:00 1.7 6 Oeste 10 Oeste 0 -- -- 100
2020-01-07 23:00:00 1.8 2 Noroeste 10 Noroeste 0 -- -- 100
2020-01-07 22:00:00 1.9 4 Oeste 9 Oeste 0 -- -- 100
2020-01-07 21:00:00 2.1 4 Norte 11 Norte 0 -- -- 100
2020-01-07 20:00:00 2.2 5 Norte 9 Norte 0 -- -- 100
2020-01-07 19:00:00 2.4 4 Norte 9 Nordeste 0 -- -- 100
2020-01-07 18:00:00 2.3 0 Calma 9 Oeste 0 -- -- 100
2020-01-07 17:00:00 2.5 5 Noroeste 9 Oeste 0 -- -- 100
2020-01-07 16:00:00 2.4 4 Noroeste 11 Noroeste 0 -- -- 100
2020-01-07 15:00:00 2.3 6 Oeste 14 Oeste 0 -- -- 100
2020-01-07 14:00:00 2.2 6 Oeste 15 Oeste 0 -- -- 100
2020-01-07 13:00:00 1.9 6 Oeste 14 Oeste 0 -- -- 100
2020-01-07 12:00:00 1.7 6 Oeste 12 Oeste 0 -- -- 100
2020-01-07 11:00:00 1.4 10 Oeste 16 Oeste 0 -- -- 100
2020-01-07 10:00:00 1.2 11 Oeste 16 Oeste 0 -- -- 100
2020-01-07 09:00:00 1 10 Oeste 15 Oeste 0 -- -- 100
2020-01-07 08:00:00 0.8 7 Oeste 19 Oeste 0 -- -- 100
2020-01-07 07:00:00 0.8 11 Oeste 17 Oeste 0 -- -- 100
2020-01-07 06:00:00 0.9 7 Oeste 18 Oeste 0 -- -- 100
2020-01-07 05:00:00 0.8 11 Oeste 18 Oeste 0 -- -- 100
2020-01-07 04:00:00 1.1 6 Oeste 14 Oeste 0 -- -- 100
2020-01-07 03:00:00 1 7 Oeste 18 Oeste 0 -- -- 100
2020-01-07 02:00:00 0.9 7 Oeste 14 Oeste 0 -- -- 100
2020-01-07 01:00:00 0.8 6 Oeste 14 Oeste 0 -- -- 100
2020-01-07 00:00:00 0.9 12 Oeste 18 Oeste 0 -- -- 100
2020-01-06 23:00:00 1.1 8 Oeste 19 Sudoeste 0 -- -- 100
2020-01-06 22:00:00 1.1 9 Oeste 16 Oeste 0 -- -- 100
2020-01-06 21:00:00 0.9 9 Oeste 14 Oeste 0 -- -- 100
2020-01-06 20:00:00 1 6 Oeste 14 Oeste 0 -- -- 100
2020-01-06 19:00:00 1.4 4 Oeste 12 Oeste 0 -- -- 100
2020-01-06 18:00:00 1.4 6 Oeste 14 Oeste 0 -- -- 100
2020-01-06 17:00:00 1.8 4 Oeste 13 Oeste 0 -- -- 100
2020-01-06 16:00:00 2.2 7 Oeste 17 Oeste 0 -- -- 100
2020-01-06 15:00:00 2.4 7 Oeste 14 Oeste 0 -- -- 100
2020-01-06 14:00:00 2.7 5 Sudoeste 12 Oeste 0 -- -- 100
2020-01-06 13:00:00 2.8 5 Oeste 9 Oeste 0 -- -- 100
2020-01-06 12:00:00 2.6 4 Oeste 11 Oeste 0 -- -- 100
2020-01-06 11:00:00 2.2 5 Oeste 9 Oeste 0 -- -- 100
2020-01-06 10:00:00 1.7 5 Oeste 8 Oeste 0 -- -- 100